sensor_id;sensor_type;location;lat;lon;timestamp;P1;durP1;ratioP1;P2;durP2;ratioP2
26435;SDS011;15351;52.408;16.826;2023-10-09T00:07:39;22.90;;;14.20;;
26435;SDS011;15351;52.408;16.826;2023-10-09T00:11:03;23.90;;;13.40;;
26435;SDS011;15351;52.408;16.826;2023-10-09T00:17:46;21.50;;;12.90;;
26435;SDS011;15351;52.408;16.826;2023-10-09T00:20:51;20.40;;;12.00;;
26435;SDS011;15351;52.408;16.826;2023-10-09T00:28:25;19.00;;;11.20;;
26435;SDS011;15351;52.408;16.826;2023-10-09T00:31:32;18.60;;;11.10;;
26435;SDS011;15351;52.408;16.826;2023-10-09T00:35:06;20.10;;;11.50;;
26435;SDS011;15351;52.408;16.826;2023-10-09T00:38:34;20.70;;;11.50;;
26435;SDS011;15351;52.408;16.826;2023-10-09T00:41:59;16.60;;;10.40;;
26435;SDS011;15351;52.408;16.826;2023-10-09T00:48:02;18.70;;;10.80;;
26435;SDS011;15351;52.408;16.826;2023-10-09T00:50:45;19.60;;;10.20;;
26435;SDS011;15351;52.408;16.826;2023-10-09T00:54:07;18.50;;;10.00;;
26435;SDS011;15351;52.408;16.826;2023-10-09T00:57:29;17.00;;;10.30;;
26435;SDS011;15351;52.408;16.826;2023-10-09T01:00:31;16.60;;;10.10;;
26435;SDS011;15351;52.408;16.826;2023-10-09T01:06:06;18.00;;;10.10;;
26435;SDS011;15351;52.408;16.826;2023-10-09T01:09:35;15.90;;;9.80;;
26435;SDS011;15351;52.408;16.826;2023-10-09T01:18:44;19.50;;;9.90;;
26435;SDS011;15351;52.408;16.826;2023-10-09T01:22:12;17.20;;;10.30;;
26435;SDS011;15351;52.408;16.826;2023-10-09T01:25:46;18.00;;;10.70;;
26435;SDS011;15351;52.408;16.826;2023-10-09T01:28:26;18.60;;;10.70;;
26435;SDS011;15351;52.408;16.826;2023-10-09T01:31:47;17.70;;;10.30;;
26435;SDS011;15351;52.408;16.826;2023-10-09T01:35:12;16.60;;;9.90;;
26435;SDS011;15351;52.408;16.826;2023-10-09T01:45:20;26.70;;;13.30;;
26435;SDS011;15351;52.408;16.826;2023-10-09T01:51:38;17.30;;;10.00;;
26435;SDS011;15351;52.408;16.826;2023-10-09T01:58:07;24.80;;;11.70;;
26435;SDS011;15351;52.408;16.826;2023-10-09T02:01:53;16.90;;;9.60;;
26435;SDS011;15351;52.408;16.826;2023-10-09T02:05:16;14.30;;;8.70;;
26435;SDS011;15351;52.408;16.826;2023-10-09T02:08:05;13.70;;;8.70;;
26435;SDS011;15351;52.408;16.826;2023-10-09T02:11:23;14.30;;;7.90;;
26435;SDS011;15351;52.408;16.826;2023-10-09T02:13:59;17.20;;;9.50;;
26435;SDS011;15351;52.408;16.826;2023-10-09T02:17:09;15.00;;;8.50;;
26435;SDS011;15351;52.408;16.826;2023-10-09T02:23:39;14.90;;;9.10;;
26435;SDS011;15351;52.408;16.826;2023-10-09T02:27:12;14.40;;;8.40;;
26435;SDS011;15351;52.408;16.826;2023-10-09T02:30:13;14.20;;;8.80;;
26435;SDS011;15351;52.408;16.826;2023-10-09T02:33:01;15.60;;;8.20;;
26435;SDS011;15351;52.408;16.826;2023-10-09T02:36:29;15.60;;;8.30;;
26435;SDS011;15351;52.408;16.826;2023-10-09T02:53:40;12.90;;;6.70;;
26435;SDS011;15351;52.408;16.826;2023-10-09T02:59:54;9.60;;;5.70;;
26435;SDS011;15351;52.408;16.826;2023-10-09T03:05:51;10.70;;;5.60;;
26435;SDS011;15351;52.408;16.826;2023-10-09T03:09:06;9.30;;;5.20;;
26435;SDS011;15351;52.408;16.826;2023-10-09T03:11:46;9.70;;;5.90;;
26435;SDS011;15351;52.408;16.826;2023-10-09T03:18:37;9.20;;;5.60;;
26435;SDS011;15351;52.408;16.826;2023-10-09T03:21:28;9.60;;;5.20;;
26435;SDS011;15351;52.408;16.826;2023-10-09T03:23:57;9.80;;;5.30;;
26435;SDS011;15351;52.408;16.826;2023-10-09T03:30:23;9.20;;;5.30;;
26435;SDS011;15351;52.408;16.826;2023-10-09T03:33:20;7.40;;;5.20;;
26435;SDS011;15351;52.408;16.826;2023-10-09T03:36:12;9.90;;;4.90;;
26435;SDS011;15351;52.408;16.826;2023-10-09T03:43:09;9.20;;;5.40;;
26435;SDS011;15351;52.408;16.826;2023-10-09T03:49:33;9.30;;;5.60;;
26435;SDS011;15351;52.408;16.826;2023-10-09T04:06:39;10.00;;;5.90;;
26435;SDS011;15351;52.408;16.826;2023-10-09T04:13:26;11.50;;;6.00;;
26435;SDS011;15351;52.408;16.826;2023-10-09T04:17:19;8.90;;;5.80;;
26435;SDS011;15351;52.408;16.826;2023-10-09T04:20:19;9.80;;;5.50;;
26435;SDS011;15351;52.408;16.826;2023-10-09T04:23:28;9.70;;;6.00;;
26435;SDS011;15351;52.408;16.826;2023-10-09T04:30:53;9.10;;;5.80;;
26435;SDS011;15351;52.408;16.826;2023-10-09T04:42:11;8.40;;;5.70;;
26435;SDS011;15351;52.408;16.826;2023-10-09T04:45:10;7.50;;;5.00;;
26435;SDS011;15351;52.408;16.826;2023-10-09T04:48:08;8.20;;;5.30;;
26435;SDS011;15351;52.408;16.826;2023-10-09T04:50:52;9.50;;;5.00;;
26435;SDS011;15351;52.408;16.826;2023-10-09T04:54:03;8.00;;;4.60;;
26435;SDS011;15351;52.408;16.826;2023-10-09T04:57:27;7.20;;;4.70;;
26435;SDS011;15351;52.408;16.826;2023-10-09T05:01:14;8.40;;;4.40;;
26435;SDS011;15351;52.408;16.826;2023-10-09T05:04:25;7.70;;;4.50;;
26435;SDS011;15351;52.408;16.826;2023-10-09T05:08:23;10.00;;;4.80;;
26435;SDS011;15351;52.408;16.826;2023-10-09T05:11:26;8.80;;;5.10;;
26435;SDS011;15351;52.408;16.826;2023-10-09T05:19:00;8.60;;;5.00;;
26435;SDS011;15351;52.408;16.826;2023-10-09T05:28:24;8.20;;;5.00;;
26435;SDS011;15351;52.408;16.826;2023-10-09T05:35:02;9.20;;;5.10;;
26435;SDS011;15351;52.408;16.826;2023-10-09T05:37:53;7.90;;;5.10;;
26435;SDS011;15351;52.408;16.826;2023-10-09T05:40:36;7.90;;;5.00;;
26435;SDS011;15351;52.408;16.826;2023-10-09T05:43:38;8.50;;;5.00;;
26435;SDS011;15351;52.408;16.826;2023-10-09T05:46:40;14.00;;;8.40;;
26435;SDS011;15351;52.408;16.826;2023-10-09T05:49:27;14.40;;;9.20;;
26435;SDS011;15351;52.408;16.826;2023-10-09T05:52:12;11.30;;;7.30;;
26435;SDS011;15351;52.408;16.826;2023-10-09T05:55:23;11.40;;;6.40;;
26435;SDS011;15351;52.408;16.826;2023-10-09T06:05:16;7.40;;;4.70;;
26435;SDS011;15351;52.408;16.826;2023-10-09T06:08:08;7.90;;;4.80;;
26435;SDS011;15351;52.408;16.826;2023-10-09T06:10:39;7.60;;;4.90;;
26435;SDS011;15351;52.408;16.826;2023-10-09T06:13:22;7.60;;;4.60;;
26435;SDS011;15351;52.408;16.826;2023-10-09T06:16:56;7.20;;;4.70;;
26435;SDS011;15351;52.408;16.826;2023-10-09T06:24:13;7.30;;;4.60;;
26435;SDS011;15351;52.408;16.826;2023-10-09T06:26:45;8.10;;;5.10;;
26435;SDS011;15351;52.408;16.826;2023-10-09T06:29:48;6.40;;;4.50;;
26435;SDS011;15351;52.408;16.826;2023-10-09T06:32:27;7.50;;;4.60;;
26435;SDS011;15351;52.408;16.826;2023-10-09T06:35:12;7.60;;;4.70;;
26435;SDS011;15351;52.408;16.826;2023-10-09T06:38:08;7.60;;;4.40;;
26435;SDS011;15351;52.408;16.826;2023-10-09T06:41:12;7.60;;;4.80;;
26435;SDS011;15351;52.408;16.826;2023-10-09T06:44:03;6.00;;;4.30;;
26435;SDS011;15351;52.408;16.826;2023-10-09T06:46:57;9.30;;;4.70;;
26435;SDS011;15351;52.408;16.826;2023-10-09T06:49:39;6.90;;;4.80;;
26435;SDS011;15351;52.408;16.826;2023-10-09T06:52:26;8.50;;;4.90;;
26435;SDS011;15351;52.408;16.826;2023-10-09T06:55:13;7.20;;;5.40;;
26435;SDS011;15351;52.408;16.826;2023-10-09T06:58:09;9.20;;;5.70;;
26435;SDS011;15351;52.408;16.826;2023-10-09T07:00:56;9.30;;;6.40;;
26435;SDS011;15351;52.408;16.826;2023-10-09T07:03:26;11.30;;;7.10;;
26435;SDS011;15351;52.408;16.826;2023-10-09T07:06:13;10.60;;;6.70;;
26435;SDS011;15351;52.408;16.826;2023-10-09T07:09:13;9.90;;;7.00;;
26435;SDS011;15351;52.408;16.826;2023-10-09T07:11:43;9.40;;;7.00;;
26435;SDS011;15351;52.408;16.826;2023-10-09T07:14:34;10.10;;;6.00;;
26435;SDS011;15351;52.408;16.826;2023-10-09T07:19:53;10.70;;;6.50;;
26435;SDS011;15351;52.408;16.826;2023-10-09T07:22:46;9.00;;;5.30;;
26435;SDS011;15351;52.408;16.826;2023-10-09T07:25:41;7.60;;;4.30;;
26435;SDS011;15351;52.408;16.826;2023-10-09T07:28:21;8.30;;;4.70;;
26435;SDS011;15351;52.408;16.826;2023-10-09T07:31:23;8.30;;;4.50;;
26435;SDS011;15351;52.408;16.826;2023-10-09T07:33:55;7.80;;;4.50;;
26435;SDS011;15351;52.408;16.826;2023-10-09T07:36:58;8.00;;;4.70;;
26435;SDS011;15351;52.408;16.826;2023-10-09T07:39:45;10.60;;;5.50;;
26435;SDS011;15351;52.408;16.826;2023-10-09T07:42:26;8.80;;;5.90;;
26435;SDS011;15351;52.408;16.826;2023-10-09T07:45:13;8.90;;;6.20;;
26435;SDS011;15351;52.408;16.826;2023-10-09T07:47:47;10.90;;;6.70;;
26435;SDS011;15351;52.408;16.826;2023-10-09T07:50:28;12.20;;;7.60;;
26435;SDS011;15351;52.408;16.826;2023-10-09T07:53:28;12.40;;;6.70;;
26435;SDS011;15351;52.408;16.826;2023-10-09T07:56:10;10.70;;;5.70;;
26435;SDS011;15351;52.408;16.826;2023-10-09T07:58:46;8.80;;;4.50;;
26435;SDS011;15351;52.408;16.826;2023-10-09T08:01:26;7.10;;;3.90;;
26435;SDS011;15351;52.408;16.826;2023-10-09T08:04:41;6.10;;;3.50;;
26435;SDS011;15351;52.408;16.826;2023-10-09T08:07:38;4.90;;;3.30;;
26435;SDS011;15351;52.408;16.826;2023-10-09T08:10:20;8.30;;;4.00;;
26435;SDS011;15351;52.408;16.826;2023-10-09T08:12:47;7.10;;;3.80;;
26435;SDS011;15351;52.408;16.826;2023-10-09T08:15:45;5.70;;;3.70;;
26435;SDS011;15351;52.408;16.826;2023-10-09T08:18:24;6.10;;;3.90;;
26435;SDS011;15351;52.408;16.826;2023-10-09T08:21:10;8.00;;;5.20;;
26435;SDS011;15351;52.408;16.826;2023-10-09T08:23:37;8.40;;;4.60;;
26435;SDS011;15351;52.408;16.826;2023-10-09T08:26:16;5.80;;;3.70;;
26435;SDS011;15351;52.408;16.826;2023-10-09T08:29:15;5.30;;;3.10;;
26435;SDS011;15351;52.408;16.826;2023-10-09T08:32:04;4.50;;;3.20;;
26435;SDS011;15351;52.408;16.826;2023-10-09T08:34:44;7.20;;;3.30;;
26435;SDS011;15351;52.408;16.826;2023-10-09T08:37:22;6.20;;;3.20;;
26435;SDS011;15351;52.408;16.826;2023-10-09T08:39:59;4.20;;;3.00;;
26435;SDS011;15351;52.408;16.826;2023-10-09T08:42:28;4.80;;;2.80;;
26435;SDS011;15351;52.408;16.826;2023-10-09T08:44:57;5.60;;;3.20;;
26435;SDS011;15351;52.408;16.826;2023-10-09T08:47:29;4.50;;;3.10;;
26435;SDS011;15351;52.408;16.826;2023-10-09T08:49:56;5.60;;;3.30;;
26435;SDS011;15351;52.408;16.826;2023-10-09T08:52:24;8.00;;;3.10;;
26435;SDS011;15351;52.408;16.826;2023-10-09T08:54:51;5.30;;;3.40;;
26435;SDS011;15351;52.408;16.826;2023-10-09T08:57:19;4.70;;;3.10;;
26435;SDS011;15351;52.408;16.826;2023-10-09T09:00:00;5.60;;;3.90;;
26435;SDS011;15351;52.408;16.826;2023-10-09T09:02:38;6.00;;;3.60;;
26435;SDS011;15351;52.408;16.826;2023-10-09T09:05:24;4.70;;;3.60;;
26435;SDS011;15351;52.408;16.826;2023-10-09T09:07:54;7.00;;;3.10;;
26435;SDS011;15351;52.408;16.826;2023-10-09T09:10:28;4.20;;;2.60;;
26435;SDS011;15351;52.408;16.826;2023-10-09T09:13:04;3.30;;;2.30;;
26435;SDS011;15351;52.408;16.826;2023-10-09T09:15:46;4.80;;;2.60;;
26435;SDS011;15351;52.408;16.826;2023-10-09T09:18:27;3.70;;;2.30;;
26435;SDS011;15351;52.408;16.826;2023-10-09T09:21:20;3.70;;;2.30;;
26435;SDS011;15351;52.408;16.826;2023-10-09T09:24:01;3.40;;;1.80;;
26435;SDS011;15351;52.408;16.826;2023-10-09T09:26:44;2.70;;;1.60;;
26435;SDS011;15351;52.408;16.826;2023-10-09T09:30:04;2.90;;;1.90;;
26435;SDS011;15351;52.408;16.826;2023-10-09T09:32:52;3.10;;;1.80;;
26435;SDS011;15351;52.408;16.826;2023-10-09T09:36:06;3.70;;;2.40;;
26435;SDS011;15351;52.408;16.826;2023-10-09T09:38:47;6.20;;;2.50;;
26435;SDS011;15351;52.408;16.826;2023-10-09T09:41:30;3.30;;;2.20;;
26435;SDS011;15351;52.408;16.826;2023-10-09T09:44:15;4.10;;;2.50;;
26435;SDS011;15351;52.408;16.826;2023-10-09T09:47:02;5.50;;;2.50;;
26435;SDS011;15351;52.408;16.826;2023-10-09T09:49:34;4.40;;;2.60;;
26435;SDS011;15351;52.408;16.826;2023-10-09T09:52:16;4.20;;;2.50;;
26435;SDS011;15351;52.408;16.826;2023-10-09T09:55:16;3.70;;;2.10;;
26435;SDS011;15351;52.408;16.826;2023-10-09T09:57:50;2.90;;;2.10;;
26435;SDS011;15351;52.408;16.826;2023-10-09T10:00:29;3.70;;;1.90;;
26435;SDS011;15351;52.408;16.826;2023-10-09T10:03:09;2.40;;;1.70;;
26435;SDS011;15351;52.408;16.826;2023-10-09T10:05:43;3.80;;;2.00;;
26435;SDS011;15351;52.408;16.826;2023-10-09T10:08:16;3.70;;;2.20;;
26435;SDS011;15351;52.408;16.826;2023-10-09T10:10:50;4.00;;;2.00;;
26435;SDS011;15351;52.408;16.826;2023-10-09T10:20:08;3.20;;;1.90;;
26435;SDS011;15351;52.408;16.826;2023-10-09T10:23:16;2.70;;;1.90;;
26435;SDS011;15351;52.408;16.826;2023-10-09T10:25:56;3.30;;;2.40;;
26435;SDS011;15351;52.408;16.826;2023-10-09T10:29:20;3.60;;;2.20;;
26435;SDS011;15351;52.408;16.826;2023-10-09T10:32:02;3.30;;;2.20;;
26435;SDS011;15351;52.408;16.826;2023-10-09T10:34:58;2.90;;;2.10;;
26435;SDS011;15351;52.408;16.826;2023-10-09T10:40:22;3.40;;;2.10;;
26435;SDS011;15351;52.408;16.826;2023-10-09T10:43:29;3.80;;;2.10;;
26435;SDS011;15351;52.408;16.826;2023-10-09T10:49:17;3.60;;;2.10;;
26435;SDS011;15351;52.408;16.826;2023-10-09T10:52:35;3.40;;;2.20;;
26435;SDS011;15351;52.408;16.826;2023-10-09T10:55:33;2.90;;;2.20;;
26435;SDS011;15351;52.408;16.826;2023-10-09T10:58:20;3.90;;;2.30;;
26435;SDS011;15351;52.408;16.826;2023-10-09T11:01:17;3.20;;;2.20;;
26435;SDS011;15351;52.408;16.826;2023-10-09T11:03:56;3.80;;;2.30;;
26435;SDS011;15351;52.408;16.826;2023-10-09T11:09:18;3.40;;;1.90;;
26435;SDS011;15351;52.408;16.826;2023-10-09T11:12:11;3.00;;;1.90;;
26435;SDS011;15351;52.408;16.826;2023-10-09T11:15:01;3.90;;;1.90;;
26435;SDS011;15351;52.408;16.826;2023-10-09T11:23:37;3.90;;;2.00;;
26435;SDS011;15351;52.408;16.826;2023-10-09T11:26:27;2.90;;;2.00;;
26435;SDS011;15351;52.408;16.826;2023-10-09T11:29:14;3.60;;;2.40;;
26435;SDS011;15351;52.408;16.826;2023-10-09T11:32:00;2.90;;;2.00;;
26435;SDS011;15351;52.408;16.826;2023-10-09T11:34:34;2.80;;;2.00;;
26435;SDS011;15351;52.408;16.826;2023-10-09T11:37:12;3.00;;;2.00;;
26435;SDS011;15351;52.408;16.826;2023-10-09T11:43:12;7.30;;;2.40;;
26435;SDS011;15351;52.408;16.826;2023-10-09T11:49:29;3.80;;;2.40;;
26435;SDS011;15351;52.408;16.826;2023-10-09T11:53:08;4.00;;;2.70;;
26435;SDS011;15351;52.408;16.826;2023-10-09T11:56:17;3.70;;;2.40;;
26435;SDS011;15351;52.408;16.826;2023-10-09T11:58:58;5.80;;;2.30;;
26435;SDS011;15351;52.408;16.826;2023-10-09T12:02:31;4.20;;;2.40;;
26435;SDS011;15351;52.408;16.826;2023-10-09T12:05:43;5.30;;;2.50;;
26435;SDS011;15351;52.408;16.826;2023-10-09T12:08:36;4.60;;;2.30;;
26435;SDS011;15351;52.408;16.826;2023-10-09T12:11:17;3.10;;;2.40;;
26435;SDS011;15351;52.408;16.826;2023-10-09T12:14:22;4.00;;;2.40;;
26435;SDS011;15351;52.408;16.826;2023-10-09T12:17:21;3.90;;;2.50;;
26435;SDS011;15351;52.408;16.826;2023-10-09T12:20:06;4.30;;;2.40;;
26435;SDS011;15351;52.408;16.826;2023-10-09T12:23:10;3.90;;;2.90;;
26435;SDS011;15351;52.408;16.826;2023-10-09T12:25:42;3.90;;;2.80;;
26435;SDS011;15351;52.408;16.826;2023-10-09T12:28:11;5.00;;;2.70;;
26435;SDS011;15351;52.408;16.826;2023-10-09T12:30:46;4.20;;;2.70;;
26435;SDS011;15351;52.408;16.826;2023-10-09T12:33:17;3.90;;;2.60;;
26435;SDS011;15351;52.408;16.826;2023-10-09T12:35:59;4.40;;;2.60;;
26435;SDS011;15351;52.408;16.826;2023-10-09T12:38:36;4.30;;;2.40;;
26435;SDS011;15351;52.408;16.826;2023-10-09T12:41:05;3.50;;;2.30;;
26435;SDS011;15351;52.408;16.826;2023-10-09T12:43:56;4.70;;;2.60;;
26435;SDS011;15351;52.408;16.826;2023-10-09T12:46:48;4.40;;;2.60;;
26435;SDS011;15351;52.408;16.826;2023-10-09T12:49:34;4.90;;;3.00;;
26435;SDS011;15351;52.408;16.826;2023-10-09T12:52:07;5.50;;;2.70;;
26435;SDS011;15351;52.408;16.826;2023-10-09T12:54:51;3.80;;;2.60;;
26435;SDS011;15351;52.408;16.826;2023-10-09T12:57:32;3.30;;;2.20;;
26435;SDS011;15351;52.408;16.826;2023-10-09T13:00:28;3.30;;;2.40;;
26435;SDS011;15351;52.408;16.826;2023-10-09T13:03:07;4.60;;;2.40;;
26435;SDS011;15351;52.408;16.826;2023-10-09T13:05:50;5.40;;;2.90;;
26435;SDS011;15351;52.408;16.826;2023-10-09T13:08:25;4.10;;;2.60;;
26435;SDS011;15351;52.408;16.826;2023-10-09T13:11:01;4.90;;;3.10;;
26435;SDS011;15351;52.408;16.826;2023-10-09T13:13:43;8.10;;;3.60;;
26435;SDS011;15351;52.408;16.826;2023-10-09T13:16:14;7.80;;;3.20;;
26435;SDS011;15351;52.408;16.826;2023-10-09T13:18:57;6.20;;;3.00;;
26435;SDS011;15351;52.408;16.826;2023-10-09T13:21:36;7.80;;;3.30;;
26435;SDS011;15351;52.408;16.826;2023-10-09T13:24:13;5.00;;;3.20;;
26435;SDS011;15351;52.408;16.826;2023-10-09T13:26:42;5.10;;;3.10;;
26435;SDS011;15351;52.408;16.826;2023-10-09T13:29:12;4.90;;;2.70;;
26435;SDS011;15351;52.408;16.826;2023-10-09T13:31:39;5.20;;;3.00;;
26435;SDS011;15351;52.408;16.826;2023-10-09T13:34:14;6.30;;;2.90;;
26435;SDS011;15351;52.408;16.826;2023-10-09T13:36:45;6.50;;;2.80;;
26435;SDS011;15351;52.408;16.826;2023-10-09T13:39:43;6.90;;;2.80;;
26435;SDS011;15351;52.408;16.826;2023-10-09T13:42:27;4.90;;;2.60;;
26435;SDS011;15351;52.408;16.826;2023-10-09T13:44:57;4.50;;;2.70;;
26435;SDS011;15351;52.408;16.826;2023-10-09T13:47:32;3.80;;;2.80;;
26435;SDS011;15351;52.408;16.826;2023-10-09T13:50:06;3.60;;;2.60;;
26435;SDS011;15351;52.408;16.826;2023-10-09T13:52:49;4.60;;;2.70;;
26435;SDS011;15351;52.408;16.826;2023-10-09T13:55:30;5.00;;;3.00;;
26435;SDS011;15351;52.408;16.826;2023-10-09T13:58:19;6.60;;;2.80;;
26435;SDS011;15351;52.408;16.826;2023-10-09T14:00:49;5.40;;;2.90;;
26435;SDS011;15351;52.408;16.826;2023-10-09T14:03:22;5.20;;;3.40;;
26435;SDS011;15351;52.408;16.826;2023-10-09T14:05:50;4.70;;;3.70;;
26435;SDS011;15351;52.408;16.826;2023-10-09T14:08:33;4.50;;;2.90;;
26435;SDS011;15351;52.408;16.826;2023-10-09T14:11:12;3.40;;;2.50;;
26435;SDS011;15351;52.408;16.826;2023-10-09T14:13:42;4.80;;;3.10;;
26435;SDS011;15351;52.408;16.826;2023-10-09T14:16:14;4.30;;;3.10;;
26435;SDS011;15351;52.408;16.826;2023-10-09T14:18:54;5.10;;;3.10;;
26435;SDS011;15351;52.408;16.826;2023-10-09T14:21:25;3.20;;;2.70;;
26435;SDS011;15351;52.408;16.826;2023-10-09T14:23:59;4.30;;;2.90;;
26435;SDS011;15351;52.408;16.826;2023-10-09T14:26:44;4.80;;;2.60;;
26435;SDS011;15351;52.408;16.826;2023-10-09T14:29:19;5.40;;;3.10;;
26435;SDS011;15351;52.408;16.826;2023-10-09T14:32:01;5.30;;;3.50;;
26435;SDS011;15351;52.408;16.826;2023-10-09T14:34:50;3.90;;;3.00;;
26435;SDS011;15351;52.408;16.826;2023-10-09T14:37:21;4.30;;;3.10;;
26435;SDS011;15351;52.408;16.826;2023-10-09T14:39:49;4.40;;;3.00;;
26435;SDS011;15351;52.408;16.826;2023-10-09T14:42:26;5.00;;;3.30;;
26435;SDS011;15351;52.408;16.826;2023-10-09T14:45:11;4.80;;;3.00;;
26435;SDS011;15351;52.408;16.826;2023-10-09T14:47:54;5.70;;;3.10;;
26435;SDS011;15351;52.408;16.826;2023-10-09T14:50:32;4.80;;;3.30;;
26435;SDS011;15351;52.408;16.826;2023-10-09T14:53:20;5.20;;;3.70;;
26435;SDS011;15351;52.408;16.826;2023-10-09T14:55:55;5.90;;;3.70;;
26435;SDS011;15351;52.408;16.826;2023-10-09T14:58:59;6.40;;;3.70;;
26435;SDS011;15351;52.408;16.826;2023-10-09T15:01:29;5.00;;;3.30;;
26435;SDS011;15351;52.408;16.826;2023-10-09T15:04:07;5.20;;;3.60;;
26435;SDS011;15351;52.408;16.826;2023-10-09T15:06:53;4.90;;;3.40;;
26435;SDS011;15351;52.408;16.826;2023-10-09T15:09:39;5.00;;;3.20;;
26435;SDS011;15351;52.408;16.826;2023-10-09T15:15:12;5.50;;;3.20;;
26435;SDS011;15351;52.408;16.826;2023-10-09T15:17:47;5.00;;;3.20;;
26435;SDS011;15351;52.408;16.826;2023-10-09T15:20:21;4.90;;;3.30;;
26435;SDS011;15351;52.408;16.826;2023-10-09T15:22:50;5.00;;;3.30;;
26435;SDS011;15351;52.408;16.826;2023-10-09T15:25:16;4.40;;;3.10;;
26435;SDS011;15351;52.408;16.826;2023-10-09T15:27:45;5.10;;;3.30;;
26435;SDS011;15351;52.408;16.826;2023-10-09T15:30:11;5.20;;;3.30;;
26435;SDS011;15351;52.408;16.826;2023-10-09T15:32:43;5.30;;;3.70;;
26435;SDS011;15351;52.408;16.826;2023-10-09T15:35:11;5.30;;;3.60;;
26435;SDS011;15351;52.408;16.826;2023-10-09T15:37:42;6.00;;;3.70;;
26435;SDS011;15351;52.408;16.826;2023-10-09T15:40:12;6.00;;;3.80;;
26435;SDS011;15351;52.408;16.826;2023-10-09T15:42:44;5.70;;;4.20;;
26435;SDS011;15351;52.408;16.826;2023-10-09T15:45:22;6.80;;;4.60;;
26435;SDS011;15351;52.408;16.826;2023-10-09T15:47:50;6.80;;;4.70;;
26435;SDS011;15351;52.408;16.826;2023-10-09T15:50:17;7.70;;;4.90;;
26435;SDS011;15351;52.408;16.826;2023-10-09T15:52:44;7.40;;;4.90;;
26435;SDS011;15351;52.408;16.826;2023-10-09T15:55:14;9.20;;;5.30;;
26435;SDS011;15351;52.408;16.826;2023-10-09T15:57:42;7.20;;;5.30;;
26435;SDS011;15351;52.408;16.826;2023-10-09T16:00:09;9.20;;;5.90;;
26435;SDS011;15351;52.408;16.826;2023-10-09T16:02:59;7.10;;;4.90;;
26435;SDS011;15351;52.408;16.826;2023-10-09T16:05:47;6.50;;;4.60;;
26435;SDS011;15351;52.408;16.826;2023-10-09T16:15:01;6.50;;;4.60;;
26435;SDS011;15351;52.408;16.826;2023-10-09T16:18:07;7.90;;;5.20;;
26435;SDS011;15351;52.408;16.826;2023-10-09T16:21:23;9.80;;;5.20;;
26435;SDS011;15351;52.408;16.826;2023-10-09T16:24:07;9.80;;;6.70;;
26435;SDS011;15351;52.408;16.826;2023-10-09T16:26:36;9.40;;;6.20;;
26435;SDS011;15351;52.408;16.826;2023-10-09T16:29:13;9.40;;;6.50;;
26435;SDS011;15351;52.408;16.826;2023-10-09T16:31:41;9.20;;;5.50;;
26435;SDS011;15351;52.408;16.826;2023-10-09T16:34:43;10.40;;;6.60;;
26435;SDS011;15351;52.408;16.826;2023-10-09T16:37:19;8.90;;;6.80;;
26435;SDS011;15351;52.408;16.826;2023-10-09T16:40:05;9.30;;;6.30;;
26435;SDS011;15351;52.408;16.826;2023-10-09T16:46:29;13.00;;;9.20;;
26435;SDS011;15351;52.408;16.826;2023-10-09T16:49:30;12.20;;;8.40;;
26435;SDS011;15351;52.408;16.826;2023-10-09T16:52:57;12.30;;;8.00;;
26435;SDS011;15351;52.408;16.826;2023-10-09T16:55:52;13.00;;;8.00;;
26435;SDS011;15351;52.408;16.826;2023-10-09T17:01:53;13.50;;;9.00;;
26435;SDS011;15351;52.408;16.826;2023-10-09T17:05:01;14.20;;;9.70;;
26435;SDS011;15351;52.408;16.826;2023-10-09T17:07:46;15.10;;;10.50;;
26435;SDS011;15351;52.408;16.826;2023-10-09T17:13:05;16.00;;;8.30;;
26435;SDS011;15351;52.408;16.826;2023-10-09T17:15:36;13.20;;;8.90;;
26435;SDS011;15351;52.408;16.826;2023-10-09T17:18:03;20.70;;;16.20;;
26435;SDS011;15351;52.408;16.826;2023-10-09T17:20:38;21.70;;;16.10;;
26435;SDS011;15351;52.408;16.826;2023-10-09T17:23:06;22.30;;;15.40;;
26435;SDS011;15351;52.408;16.826;2023-10-09T17:25:37;19.10;;;14.00;;
26435;SDS011;15351;52.408;16.826;2023-10-09T17:28:10;18.80;;;13.60;;
26435;SDS011;15351;52.408;16.826;2023-10-09T17:30:58;19.60;;;14.70;;
26435;SDS011;15351;52.408;16.826;2023-10-09T17:33:56;22.80;;;17.00;;
26435;SDS011;15351;52.408;16.826;2023-10-09T17:36:31;30.90;;;22.20;;
26435;SDS011;15351;52.408;16.826;2023-10-09T17:39:01;28.50;;;19.30;;
26435;SDS011;15351;52.408;16.826;2023-10-09T17:41:31;30.90;;;21.80;;
26435;SDS011;15351;52.408;16.826;2023-10-09T17:44:01;34.30;;;24.60;;
26435;SDS011;15351;52.408;16.826;2023-10-09T17:46:29;36.20;;;25.80;;
26435;SDS011;15351;52.408;16.826;2023-10-09T17:48:57;36.00;;;22.90;;
26435;SDS011;15351;52.408;16.826;2023-10-09T17:51:27;35.10;;;22.50;;
26435;SDS011;15351;52.408;16.826;2023-10-09T17:54:02;38.10;;;24.30;;
26435;SDS011;15351;52.408;16.826;2023-10-09T17:56:29;35.60;;;23.10;;
26435;SDS011;15351;52.408;16.826;2023-10-09T17:58:58;40.60;;;28.20;;
26435;SDS011;15351;52.408;16.826;2023-10-09T18:01:24;57.80;;;34.80;;
26435;SDS011;15351;52.408;16.826;2023-10-09T18:03:56;59.80;;;35.10;;
26435;SDS011;15351;52.408;16.826;2023-10-09T18:06:25;52.10;;;33.10;;
26435;SDS011;15351;52.408;16.826;2023-10-09T18:08:55;31.90;;;21.90;;
26435;SDS011;15351;52.408;16.826;2023-10-09T18:11:42;23.30;;;16.70;;
26435;SDS011;15351;52.408;16.826;2023-10-09T18:14:16;20.60;;;15.00;;
26435;SDS011;15351;52.408;16.826;2023-10-09T18:17:09;20.00;;;13.00;;
26435;SDS011;15351;52.408;16.826;2023-10-09T18:20:08;17.10;;;11.70;;
26435;SDS011;15351;52.408;16.826;2023-10-09T18:22:43;16.60;;;11.30;;
26435;SDS011;15351;52.408;16.826;2023-10-09T18:25:22;18.60;;;12.30;;
26435;SDS011;15351;52.408;16.826;2023-10-09T18:27:48;17.50;;;12.00;;
26435;SDS011;15351;52.408;16.826;2023-10-09T18:30:16;19.10;;;12.90;;
26435;SDS011;15351;52.408;16.826;2023-10-09T18:32:44;15.80;;;11.00;;
26435;SDS011;15351;52.408;16.826;2023-10-09T18:35:12;18.40;;;13.20;;
26435;SDS011;15351;52.408;16.826;2023-10-09T18:37:42;22.40;;;16.10;;
26435;SDS011;15351;52.408;16.826;2023-10-09T18:40:48;23.80;;;16.30;;
26435;SDS011;15351;52.408;16.826;2023-10-09T18:43:49;26.10;;;17.10;;
26435;SDS011;15351;52.408;16.826;2023-10-09T18:46:21;34.30;;;22.20;;
26435;SDS011;15351;52.408;16.826;2023-10-09T18:48:55;31.00;;;21.10;;
26435;SDS011;15351;52.408;16.826;2023-10-09T18:51:27;34.40;;;24.00;;
26435;SDS011;15351;52.408;16.826;2023-10-09T18:54:02;52.50;;;31.50;;
26435;SDS011;15351;52.408;16.826;2023-10-09T18:56:32;47.60;;;28.40;;
26435;SDS011;15351;52.408;16.826;2023-10-09T18:59:00;47.70;;;29.70;;
26435;SDS011;15351;52.408;16.826;2023-10-09T19:01:27;36.80;;;26.00;;
26435;SDS011;15351;52.408;16.826;2023-10-09T19:03:54;37.40;;;26.20;;
26435;SDS011;15351;52.408;16.826;2023-10-09T19:06:29;43.10;;;26.60;;
26435;SDS011;15351;52.408;16.826;2023-10-09T19:09:01;45.60;;;27.30;;
26435;SDS011;15351;52.408;16.826;2023-10-09T19:11:37;43.80;;;27.10;;
26435;SDS011;15351;52.408;16.826;2023-10-09T19:14:08;41.20;;;26.80;;
26435;SDS011;15351;52.408;16.826;2023-10-09T19:16:36;42.10;;;27.20;;
26435;SDS011;15351;52.408;16.826;2023-10-09T19:19:18;43.80;;;26.30;;
26435;SDS011;15351;52.408;16.826;2023-10-09T19:22:27;44.80;;;26.00;;
26435;SDS011;15351;52.408;16.826;2023-10-09T19:24:55;53.40;;;31.80;;
26435;SDS011;15351;52.408;16.826;2023-10-09T19:27:27;56.50;;;35.90;;
26435;SDS011;15351;52.408;16.826;2023-10-09T19:29:56;54.40;;;36.40;;